createdAt,value
2022-11-20T05:04:29.167Z,-4.99
2022-11-20T05:08:32.272Z,-5.12
2022-11-20T05:12:34.733Z,-5.17
2022-11-20T05:16:37.420Z,-5.21
2022-11-20T05:20:41.381Z,-5.12
2022-11-20T05:24:44.180Z,-5.17
2022-11-20T05:28:47.908Z,-5.22
2022-11-20T05:32:50.563Z,-5.29
2022-11-20T05:36:54.484Z,-5.42
2022-11-20T05:40:57.261Z,-5.54
2022-11-20T05:45:00.526Z,-5.57
2022-11-20T05:49:03.141Z,-5.63
2022-11-20T05:53:07.106Z,-5.65
2022-11-20T05:57:09.733Z,-5.63
2022-11-20T06:01:14.499Z,-5.63
2022-11-20T06:05:17.274Z,-5.54
2022-11-20T06:09:21.319Z,-5.50
2022-11-20T06:13:24.256Z,-5.51
2022-11-20T06:17:26.878Z,-5.60
2022-11-20T06:21:29.771Z,-5.69
2022-11-20T06:25:33.746Z,-5.75
2022-11-20T06:29:36.661Z,-5.71
2022-11-20T06:33:39.277Z,-5.48
2022-11-20T06:37:41.909Z,-5.21
2022-11-20T06:41:45.887Z,-5.13
2022-11-20T06:45:48.551Z,-5.04
2022-11-20T06:49:51.159Z,-5.02
2022-11-20T06:53:53.780Z,-5.07
2022-11-20T06:57:57.727Z,-5.00
2022-11-20T07:02:00.336Z,-5.02
2022-11-20T07:06:04.015Z,-5.07
2022-11-20T07:10:07.608Z,-5.06
2022-11-20T07:14:11.577Z,-5.08
2022-11-20T07:18:14.199Z,-5.22
2022-11-20T07:22:16.775Z,-5.23
2022-11-20T07:26:20.308Z,-5.35
2022-11-20T07:30:24.289Z,-5.39
2022-11-20T07:34:27.094Z,-5.20
2022-11-20T07:38:30.408Z,-5.06
2022-11-20T07:42:33.033Z,-5.09
2022-11-20T07:46:39.458Z,-5.03
2022-11-20T07:50:42.124Z,-4.99
2022-11-20T07:54:44.720Z,-4.90
2022-11-20T07:58:47.371Z,-4.88
2022-11-20T08:02:51.380Z,-4.64
2022-11-20T08:06:54.507Z,-4.36
2022-11-20T08:11:18.496Z,-4.21
2022-11-20T08:15:21.120Z,-3.96
2022-11-20T08:19:25.266Z,-3.96
2022-11-20T08:23:28.064Z,-3.78
2022-11-20T08:27:30.724Z,-3.70
2022-11-20T08:31:33.827Z,-3.65
2022-11-20T08:35:38.672Z,-3.61
2022-11-20T08:39:41.337Z,-3.46
2022-11-20T08:43:43.914Z,-3.38
2022-11-20T08:47:47.024Z,-3.28
2022-11-20T08:51:53.334Z,-3.11
2022-11-20T08:55:55.977Z,-3.06
2022-11-20T09:00:06.069Z,-2.85
2022-11-20T09:04:09.571Z,-2.73
2022-11-20T09:08:13.642Z,-2.65
2022-11-20T09:12:19.249Z,-2.52
2022-11-20T09:16:23.043Z,-2.44
2022-11-20T09:20:26.890Z,-2.30
2022-11-20T09:24:34.312Z,-2.11
2022-11-20T09:28:38.096Z,-1.84
2022-11-20T09:32:41.384Z,-1.74
2022-11-20T09:36:44.281Z,-1.58
2022-11-20T09:40:55.267Z,-1.46
2022-11-20T09:45:13.191Z,-1.35
2022-11-20T09:49:32.599Z,-1.13
2022-11-20T09:53:45.109Z,-0.98
2022-11-20T09:57:53.240Z,-0.84
2022-11-20T10:01:58.148Z,-0.72
2022-11-20T10:06:05.010Z,-0.67
2022-11-20T10:10:17.859Z,-0.56
2022-11-20T10:14:30.848Z,-0.45
2022-11-20T10:18:45.054Z,-0.48
2022-11-20T10:23:02.729Z,-0.31
2022-11-20T10:27:18.222Z,-0.24
2022-11-20T10:31:31.453Z,-0.10
2022-11-20T10:35:41.330Z,-0.09
2022-11-20T10:39:52.445Z,0.03
2022-11-20T10:44:09.692Z,0.17
2022-11-20T10:48:18.614Z,0.27
2022-11-20T10:52:28.448Z,0.29
2022-11-20T10:56:37.702Z,0.53
2022-11-20T11:00:40.391Z,0.50
2022-11-20T11:04:47.253Z,0.63
2022-11-20T11:08:52.288Z,0.79
2022-11-20T11:12:54.946Z,1.04
2022-11-20T11:16:59.270Z,1.25
2022-11-20T11:21:05.065Z,1.28
2022-11-20T11:25:21.352Z,1.22
2022-11-20T11:29:25.269Z,1.07
2022-11-20T11:33:29.320Z,0.90
2022-11-20T11:38:07.847Z,0.86
2022-11-20T11:42:35.761Z,0.82
2022-11-20T11:46:39.341Z,0.92
2022-11-20T11:50:50.738Z,1.06
2022-11-20T11:54:57.567Z,1.02
2022-11-20T11:59:08.112Z,0.91
2022-11-20T12:03:16.553Z,1.07
2022-11-20T12:11:56.590Z,0.94
2022-11-20T12:16:00.492Z,1.04
2022-11-20T12:20:03.139Z,1.02
2022-11-20T12:24:20.186Z,1.18
2022-11-20T12:28:39.167Z,1.38
2022-11-20T12:33:06.046Z,1.43
2022-11-20T12:37:24.670Z,1.36
2022-11-20T12:42:12.876Z,1.39
2022-11-20T12:46:38.640Z,1.51
2022-11-20T12:51:14.471Z,1.44
2022-11-20T12:55:33.640Z,1.62
2022-11-20T12:59:54.354Z,1.62
2022-11-20T13:04:10.541Z,1.58
2022-11-20T13:08:20.587Z,1.59
2022-11-20T13:12:32.294Z,1.69
2022-11-20T13:16:40.478Z,1.75
2022-11-20T13:20:46.330Z,1.76
2022-11-20T13:24:52.791Z,1.73
2022-11-20T13:29:04.936Z,1.60
2022-11-20T13:33:11.149Z,1.69
2022-11-20T13:37:30.068Z,1.66
2022-11-20T13:41:36.460Z,1.65
2022-11-20T13:45:39.287Z,1.69
2022-11-20T13:49:45.345Z,1.68
2022-11-20T13:54:06.454Z,1.69
2022-11-20T13:58:29.384Z,1.51
2022-11-20T14:02:32.453Z,1.47
2022-11-20T14:06:41.122Z,1.44
2022-11-20T14:10:45.329Z,1.33
2022-11-20T14:14:52.889Z,1.32
2022-11-20T14:18:56.749Z,1.32
2022-11-20T14:22:59.401Z,1.28
2022-11-20T14:27:04.115Z,1.38
2022-11-20T14:31:18.779Z,1.34
2022-11-20T14:35:26.102Z,1.40
2022-11-20T14:39:32.738Z,1.27
2022-11-20T14:43:38.620Z,1.21
2022-11-20T14:47:42.199Z,1.13
2022-11-20T14:51:46.030Z,1.03
2022-11-20T14:55:58.936Z,0.87
2022-11-20T15:00:10.496Z,0.66
2022-11-20T15:04:13.436Z,0.46
2022-11-20T15:08:17.244Z,0.37
2022-11-20T15:12:20.065Z,0.13
2022-11-20T15:16:25.707Z,-0.07
2022-11-20T15:20:32.423Z,-0.20
2022-11-20T15:24:35.092Z,-0.37
2022-11-20T15:28:41.447Z,-0.52
2022-11-20T15:32:46.959Z,-0.60
2022-11-20T15:36:49.549Z,-0.60
2022-11-20T15:40:52.552Z,-0.54
2022-11-20T15:44:55.150Z,-0.59
2022-11-20T15:49:01.665Z,-0.62
2022-11-20T15:53:04.360Z,-0.67
2022-11-20T15:57:07.133Z,-0.78
2022-11-20T16:01:12.713Z,-0.87
2022-11-20T16:05:17.482Z,-0.88
2022-11-20T16:09:20.105Z,-0.86
2022-11-20T16:13:40.560Z,-0.85
2022-11-20T16:17:46.227Z,-0.76
2022-11-20T16:21:50.519Z,-0.67
2022-11-20T16:25:53.155Z,-0.53
2022-11-20T16:29:55.788Z,-0.40
2022-11-20T16:34:01.001Z,-0.32
2022-11-20T16:38:05.002Z,-0.29
2022-11-20T16:42:07.732Z,-0.21
2022-11-20T16:46:10.349Z,-0.15
2022-11-20T16:50:13.075Z,-0.18
2022-11-20T16:54:20.744Z,-0.14
2022-11-20T16:58:24.334Z,-0.17
2022-11-20T17:02:27.010Z,-0.29
2022-11-20T17:06:31.795Z,-0.31
2022-11-20T17:10:35.828Z,-0.26
2022-11-20T17:14:38.465Z,-0.28
2022-11-20T17:18:41.893Z,-0.15
2022-11-20T17:22:44.381Z,0.09
2022-11-20T17:26:49.825Z,0.22
2022-11-20T17:30:52.474Z,0.17
2022-11-20T17:34:55.062Z,0.26
2022-11-20T17:38:57.953Z,0.48
2022-11-20T17:43:01.947Z,0.66
2022-11-20T17:47:08.819Z,0.69
2022-11-20T17:51:13.386Z,0.74
2022-11-20T17:55:16.293Z,0.85
2022-11-20T17:59:25.251Z,0.94
2022-11-20T18:03:28.970Z,0.96
2022-11-20T18:07:31.585Z,1.00
2022-11-20T18:11:36.331Z,0.98
2022-11-20T18:15:40.342Z,1.07
2022-11-20T18:20:07.278Z,1.02
2022-11-20T18:24:12.410Z,1.04
2022-11-20T18:28:15.032Z,1.06
2022-11-20T18:32:22.587Z,1.14
2022-11-20T18:36:27.020Z,1.30
2022-11-20T18:40:33.515Z,1.28
2022-11-20T18:44:51.468Z,1.37
2022-11-20T18:48:55.438Z,1.32
2022-11-20T18:57:18.778Z,1.32
2022-11-20T19:01:21.516Z,1.40
2022-11-20T19:05:25.592Z,1.49
2022-11-20T19:09:29.249Z,1.49
2022-11-20T19:13:33.743Z,1.53
2022-11-20T19:17:37.738Z,1.55
2022-11-20T19:26:00.273Z,1.58
2022-11-20T19:30:04.741Z,1.63
2022-11-20T19:34:08.321Z,1.69
2022-11-20T19:38:14.755Z,1.78
2022-11-20T19:42:17.386Z,1.73
2022-11-20T19:46:21.841Z,1.68
2022-11-20T19:50:24.578Z,1.71
2022-11-20T19:54:28.683Z,1.73
2022-11-20T19:58:31.782Z,1.89
2022-11-20T20:02:34.406Z,1.85
2022-11-20T20:06:38.882Z,1.71
2022-11-20T20:19:33.299Z,1.78
2022-11-20T20:23:36.458Z,1.85
2022-11-20T20:33:14.961Z,1.92
2022-11-20T20:41:43.307Z,1.85
2022-11-20T20:45:48.690Z,1.89
2022-11-20T20:49:52.686Z,1.89
2022-11-20T20:53:57.991Z,1.91
2022-11-20T20:58:00.707Z,1.98
2022-11-20T21:02:09.424Z,2.00
2022-11-20T21:06:13.835Z,2.04
2022-11-20T21:10:21.039Z,2.00
2022-11-20T21:14:27.022Z,1.96
2022-11-20T21:18:29.614Z,1.93
2022-11-20T21:22:36.442Z,1.87
2022-11-20T21:26:39.295Z,1.82
2022-11-20T21:30:41.918Z,1.73
2022-11-20T21:34:44.565Z,1.68
2022-11-20T21:38:49.445Z,1.60
2022-11-20T21:42:53.793Z,1.48
2022-11-20T21:46:56.417Z,1.46
2022-11-20T21:51:06.819Z,1.58
2022-11-20T21:55:11.212Z,1.79
2022-11-20T21:59:14.262Z,1.82
